Time;durP1;ratioP1;P1;durP2;ratioP2;P2;SDS_P1;SDS_P2;PMS_P1;PMS_P2;Temp;Humidity;BMP_temperature;BMP_pressure;BME280_temperature;BME280_humidity;BME280_pressure;Samples;Min_cycle;Max_cycle;Signal;HPM_P1;HPM_P2
2022/04/28 00:00:41;;;;;;;7.43;4.57;;;7.30;78.60;;;;;;5018364;28;20034;-46
2022/04/28 00:03:09;;;;;;;11.88;4.28;;;7.30;78.90;;;;;;5009351;28;20037;-49
2022/04/28 00:05:35;;;;;;;7.95;5.53;;;7.40;78.70;;;;;;5015067;28;20033;-47
2022/04/28 00:08:03;;;;;;;7.22;4.43;;;7.40;78.90;;;;;;5019074;28;20034;-46
2022/04/28 00:10:30;;;;;;;5.78;4.35;;;7.40;79.20;;;;;;5014153;28;20026;-45
2022/04/28 00:12:57;;;;;;;11.23;5.30;;;7.40;79.30;;;;;;4997776;28;20026;-50
2022/04/28 00:15:24;;;;;;;7.65;4.68;;;7.40;79.80;;;;;;5013574;28;20355;-48
2022/04/28 00:17:51;;;;;;;10.63;6.53;;;7.40;79.70;;;;;;5014051;28;20033;-48
2022/04/28 00:20:17;;;;;;;11.00;5.22;;;7.40;79.80;;;;;;5013422;28;20033;-49
2022/04/28 00:22:44;;;;;;;10.10;6.38;;;7.40;80.10;;;;;;5005796;28;20110;-50
2022/04/28 00:25:11;;;;;;;10.30;6.03;;;7.40;80.10;;;;;;5004067;28;20030;-45
2022/04/28 00:27:38;;;;;;;10.20;5.65;;;7.40;80.20;;;;;;5009318;28;20033;-46
2022/04/28 00:30:06;;;;;;;13.85;6.43;;;7.40;80.10;;;;;;5014002;28;20040;-45
2022/04/28 00:32:33;;;;;;;8.85;6.38;;;7.30;80.00;;;;;;5014631;28;20375;-48
2022/04/28 00:35:04;;;;;;;10.35;7.05;;;7.30;80.20;;;;;;5013422;28;20123;-46
2022/04/28 00:37:31;;;;;;;11.50;7.18;;;7.30;80.10;;;;;;5014529;28;20033;-48
2022/04/28 00:40:01;;;;;;;12.98;6.80;;;7.20;80.20;;;;;;5014499;28;20030;-45
2022/04/28 00:42:30;;;;;;;10.10;6.57;;;7.20;80.20;;;;;;5013698;28;20029;-46
2022/04/28 00:44:57;;;;;;;11.40;6.32;;;7.20;80.30;;;;;;5012002;28;20125;-45
2022/04/28 00:50:38;;;;;;;12.73;7.10;;;7.10;80.30;;;;;;5014542;28;20041;-44
2022/04/28 00:52:58;;;;;;;9.25;5.88;;;6.90;80.30;;;;;;5052332;28;20155;-47
2022/04/28 00:55:26;;;;;;;10.68;6.88;;;6.80;80.50;;;;;;5051132;28;20621;-44
2022/04/28 00:57:53;;;;;;;13.07;7.22;;;6.70;80.70;;;;;;5053667;28;20039;-44
2022/04/28 01:00:20;;;;;;;11.73;7.38;;;6.50;80.70;;;;;;5049592;28;20037;-47
2022/04/28 01:02:47;;;;;;;17.70;8.15;;;6.40;80.70;;;;;;5020081;28;20107;-46
2022/04/28 01:05:16;;;;;;;11.38;6.53;;;6.30;80.80;;;;;;5045608;28;20060;-48
2022/04/28 01:07:43;;;;;;;11.88;7.47;;;6.20;81.00;;;;;;5049811;28;20025;-47
2022/04/28 01:10:10;;;;;;;12.65;7.47;;;6.10;81.10;;;;;;5051974;28;20040;-47
2022/04/28 01:12:37;;;;;;;14.10;7.32;;;6.00;81.40;;;;;;5051634;28;20491;-47
2022/04/28 01:15:05;;;;;;;14.15;7.97;;;5.90;81.50;;;;;;5033874;28;20032;-45
2022/04/28 01:17:31;;;;;;;12.38;8.70;;;5.90;81.80;;;;;;5069640;28;20086;-44
2022/04/28 01:19:58;;;;;;;10.68;8.10;;;5.80;82.00;;;;;;5035131;28;20037;-47
2022/04/28 01:22:26;;;;;;;13.20;7.90;;;5.70;82.00;;;;;;5051905;28;20117;-45
2022/04/28 01:24:53;;;;;;;14.80;8.32;;;5.70;82.20;;;;;;5068404;28;20049;-44
2022/04/28 01:27:23;;;;;;;17.30;8.20;;;5.60;82.40;;;;;;5051922;28;20461;-44
2022/04/28 01:29:50;;;;;;;11.25;8.38;;;5.50;82.60;;;;;;5052886;28;20032;-45
2022/04/28 01:32:17;;;;;;;10.50;8.27;;;5.50;82.60;;;;;;5052049;28;20045;-46
2022/04/28 01:34:43;;;;;;;11.65;8.57;;;5.50;82.70;;;;;;5052471;28;20025;-44
2022/04/28 01:37:10;;;;;;;12.85;8.88;;;5.50;82.90;;;;;;5051884;28;20452;-44
2022/04/28 01:39:37;;;;;;;12.60;8.45;;;5.40;82.70;;;;;;5052431;28;20043;-45
2022/04/28 01:42:05;;;;;;;14.32;9.30;;;5.40;82.80;;;;;;5034433;28;20070;-43
2022/04/28 01:44:33;;;;;;;15.15;8.63;;;5.40;83.00;;;;;;5034523;28;20021;-44
2022/04/28 01:47:00;;;;;;;16.10;8.48;;;5.30;82.90;;;;;;5032380;28;20025;-44
2022/04/28 01:49:27;;;;;;;14.95;8.50;;;5.30;82.90;;;;;;5050417;28;20055;-45
2022/04/28 01:54:57;;;;;;;13.35;8.20;;;5.20;83.10;;;;;;5039595;28;20044;-45
2022/04/28 01:57:30;;;;;;;13.45;9.00;;;5.20;83.10;;;;;;5051679;28;20090;-43
2022/04/28 01:59:58;;;;;;;14.52;9.45;;;5.20;83.30;;;;;;5062487;28;20038;-44
2022/04/28 02:02:28;;;;;;;12.98;8.50;;;5.20;83.50;;;;;;5050751;28;20029;-45
2022/04/28 02:04:59;;;;;;;11.52;7.90;;;5.20;83.70;;;;;;5045456;28;20052;-45
2022/04/28 02:07:25;;;;;;;16.42;9.23;;;5.30;83.80;;;;;;5051958;28;20052;-45
2022/04/28 02:09:52;;;;;;;10.60;8.32;;;5.40;83.90;;;;;;5051007;28;20036;-44
2022/04/28 02:12:21;;;;;;;15.63;9.23;;;5.40;84.10;;;;;;5048279;28;20014;-44
2022/04/28 02:14:48;;;;;;;11.85;8.50;;;5.50;83.90;;;;;;5037545;28;20112;-45
2022/04/28 02:17:27;;;;;;;14.15;9.02;;;5.50;83.80;;;;;;5053326;28;20397;-45
2022/04/28 02:19:54;;;;;;;14.02;9.43;;;5.60;83.80;;;;;;5054554;28;20059;-44
2022/04/28 02:22:23;;;;;;;11.82;7.93;;;5.60;83.80;;;;;;5056968;28;20033;-48
2022/04/28 02:24:50;;;;;;;15.82;10.75;;;5.70;83.80;;;;;;5055471;28;20108;-47
2022/04/28 02:27:18;;;;;;;14.85;9.25;;;5.70;83.60;;;;;;5053454;28;20064;-44
2022/04/28 02:29:50;;;;;;;14.63;8.55;;;5.70;83.50;;;;;;5055240;28;20029;-45
2022/04/28 02:32:17;;;;;;;11.38;9.55;;;5.70;83.60;;;;;;5054621;28;20035;-47
2022/04/28 02:34:45;;;;;;;14.15;8.52;;;5.70;83.40;;;;;;5055960;28;20524;-44
2022/04/28 02:37:13;;;;;;;13.02;9.38;;;5.70;83.30;;;;;;5070946;28;20043;-43
2022/04/28 02:39:40;;;;;;;17.52;8.43;;;5.70;83.20;;;;;;5055717;28;20083;-46
2022/04/28 02:42:11;;;;;;;17.63;8.68;;;5.70;83.40;;;;;;5054198;28;20033;-45
2022/04/28 02:44:38;;;;;;;14.15;9.82;;;5.70;83.30;;;;;;5055630;28;20468;-46
2022/04/28 02:47:05;;;;;;;15.52;9.25;;;5.70;82.90;;;;;;5052761;28;20068;-45
2022/04/28 02:49:32;;;;;;;12.35;8.75;;;5.70;83.00;;;;;;5054930;28;20384;-46
2022/04/28 02:52:01;;;;;;;12.63;9.40;;;5.70;83.10;;;;;;5047981;28;20068;-45
2022/04/28 02:54:30;;;;;;;16.67;9.05;;;5.70;83.20;;;;;;5030741;28;20036;-45
2022/04/28 02:56:57;;;;;;;12.15;7.75;;;5.70;83.30;;;;;;5041634;28;20048;-45
2022/04/28 02:59:24;;;;;;;14.40;9.35;;;5.70;83.10;;;;;;5051091;28;20446;-45
2022/04/28 03:01:49;;;;;;;11.10;8.02;;;5.70;82.90;;;;;;5050133;28;20037;-43
2022/04/28 03:04:15;;;;;;;12.23;9.05;;;5.60;82.90;;;;;;5037051;28;20194;-44
2022/04/28 03:12:17;;;;;;;18.88;11.85;;;5.50;83.10;;;;;;5054535;28;20074;-44
2022/04/28 03:14:43;;;;;;;26.67;14.23;;;5.50;83.20;;;;;;5055439;28;20048;-44
2022/04/28 03:17:10;;;;;;;27.48;14.55;;;5.50;83.20;;;;;;5026316;28;20072;-47
2022/04/28 03:19:43;;;;;;;19.98;11.18;;;5.50;83.50;;;;;;5032887;28;20021;-45
2022/04/28 03:22:09;;;;;;;16.45;11.25;;;5.50;83.60;;;;;;5051756;28;20094;-47
2022/04/28 03:24:36;;;;;;;16.15;9.98;;;5.60;83.60;;;;;;5052257;28;20033;-45
2022/04/28 03:27:05;;;;;;;17.23;9.85;;;5.60;83.60;;;;;;5052981;28;20082;-47
2022/04/28 03:29:32;;;;;;;18.58;8.77;;;5.70;83.60;;;;;;5052078;28;20370;-44
2022/04/28 03:31:59;;;;;;;15.65;9.25;;;5.80;83.30;;;;;;5053732;28;20108;-44
2022/04/28 03:34:26;;;;;;;15.10;8.50;;;5.90;83.40;;;;;;5052403;28;20139;-43
2022/04/28 03:36:52;;;;;;;13.10;8.75;;;5.90;83.30;;;;;;5054075;28;20450;-44
2022/04/28 03:39:20;;;;;;;10.70;7.88;;;5.90;83.10;;;;;;5053084;28;20029;-44
2022/04/28 03:41:47;;;;;;;11.77;7.85;;;5.90;83.10;;;;;;5070399;28;20350;-45
2022/04/28 03:44:14;;;;;;;13.93;7.90;;;6.00;83.00;;;;;;5053645;28;20037;-45
2022/04/28 03:46:40;;;;;;;13.65;8.00;;;6.00;83.00;;;;;;5055473;28;20113;-44
2022/04/28 03:49:07;;;;;;;11.73;8.18;;;6.00;83.20;;;;;;5053786;28;20365;-45
2022/04/28 03:51:34;;;;;;;13.32;8.82;;;6.00;83.40;;;;;;5027618;28;20074;-44
2022/04/28 03:54:01;;;;;;;11.25;7.97;;;6.00;83.50;;;;;;5000337;28;20451;-45
2022/04/28 03:56:31;;;;;;;15.05;8.55;;;6.00;83.70;;;;;;5014674;28;20026;-44
2022/04/28 03:58:59;;;;;;;13.40;7.95;;;6.10;83.80;;;;;;5015122;28;20021;-47
2022/04/28 04:01:29;;;;;;;14.98;8.77;;;6.10;83.80;;;;;;5044224;28;20144;-44
2022/04/28 04:03:55;;;;;;;;;;;6.10;83.80;;;;;;5035485;28;20064;-44
2022/04/28 04:06:21;;;;;;;11.70;8.52;;;6.20;83.90;;;;;;5034721;28;19913;-44
2022/04/28 04:08:50;;;;;;;17.83;8.90;;;6.20;83.90;;;;;;5020484;28;20037;-44
2022/04/28 04:11:20;;;;;;;16.65;9.45;;;6.20;84.00;;;;;;5013749;28;20065;-45
2022/04/28 04:13:47;;;;;;;13.73;8.35;;;6.30;84.10;;;;;;4997518;28;20033;-45
2022/04/28 04:16:13;;;;;;;12.45;8.02;;;6.40;84.20;;;;;;5008312;28;20037;-44
2022/04/28 04:18:39;;;;;;;10.98;7.65;;;6.40;84.20;;;;;;5014268;28;20048;-45
2022/04/28 04:21:06;;;;;;;12.48;8.48;;;6.40;84.20;;;;;;5045288;28;20026;-45
2022/04/28 04:23:33;;;;;;;10.95;8.02;;;6.50;84.40;;;;;;5015378;28;20117;-44
2022/04/28 04:26:01;;;;;;;11.77;7.75;;;6.60;84.40;;;;;;5014692;28;20034;-45
2022/04/28 04:28:31;;;;;;;10.43;7.82;;;6.60;84.40;;;;;;5013615;28;20448;-45
2022/04/28 04:33:46;;;;;;;14.27;7.68;;;6.70;84.50;;;;;;5014790;28;20153;-45
2022/04/28 04:36:16;;;;;;;10.88;7.50;;;6.80;84.70;;;;;;5014274;28;20509;-45
2022/04/28 04:38:42;;;;;;;;;;;6.90;84.80;;;;;;5046627;28;20131;-46
2022/04/28 04:41:11;;;;;;;15.35;8.15;;;6.90;84.90;;;;;;5011929;28;20254;-44
2022/04/28 04:43:38;;;;;;;12.05;8.93;;;6.90;85.00;;;;;;5014293;28;20454;-45
2022/04/28 04:46:05;;;;;;;14.98;8.18;;;6.90;85.10;;;;;;5025133;28;20157;-44
2022/04/28 04:48:31;;;;;;;9.90;6.97;;;7.00;85.30;;;;;;4999433;28;20022;-46
2022/04/28 04:50:57;;;;;;;15.90;8.95;;;7.10;85.40;;;;;;5045067;28;20046;-47
2022/04/28 04:53:24;;;;;;;10.68;5.10;;;7.20;85.70;;;;;;5013669;28;20100;-44
2022/04/28 04:55:53;;;;;;;9.52;3.65;;;7.30;86.20;;;;;;5010703;28;20113;-45
2022/04/28 04:58:20;;;;;;;15.43;5.55;;;7.40;86.30;;;;;;5012420;28;20117;-45
2022/04/28 05:00:47;;;;;;;11.93;4.22;;;7.40;86.40;;;;;;5009081;28;20034;-50
2022/04/28 05:03:14;;;;;;;12.95;3.90;;;7.50;86.50;;;;;;5014918;28;20022;-45
2022/04/28 05:05:42;;;;;;;16.60;3.72;;;7.60;86.50;;;;;;4996401;28;20037;-45
2022/04/28 05:08:08;;;;;;;12.73;3.50;;;7.70;86.50;;;;;;5013272;28;20026;-44
2022/04/28 05:10:33;;;;;;;10.73;3.50;;;7.80;86.40;;;;;;5011978;28;20047;-46
2022/04/28 05:12:59;;;;;;;17.27;3.35;;;7.80;86.40;;;;;;5013986;28;20037;-44
2022/04/28 05:15:28;;;;;;;11.52;3.58;;;7.90;86.20;;;;;;5012980;28;20120;-44
2022/04/28 05:17:55;;;;;;;13.10;5.55;;;7.90;86.10;;;;;;5013605;28;20386;-45
2022/04/28 05:20:22;;;;;;;12.57;4.20;;;7.90;85.90;;;;;;4996288;28;20632;-47
2022/04/28 05:22:48;;;;;;;13.77;5.07;;;8.00;85.80;;;;;;5013881;28;20088;-45
2022/04/28 05:25:15;;;;;;;11.30;3.65;;;8.00;85.70;;;;;;5005653;28;20077;-47
2022/04/28 05:27:41;;;;;;;11.90;3.20;;;8.00;85.70;;;;;;5011321;28;20022;-44
2022/04/28 05:30:11;;;;;;;14.95;3.58;;;8.10;85.70;;;;;;5008126;28;20147;-44
2022/04/28 05:32:37;;;;;;;15.43;4.00;;;8.20;85.70;;;;;;5010134;28;20369;-47
2022/04/28 05:35:06;;;;;;;14.15;3.75;;;8.20;85.50;;;;;;5012669;28;20029;-46
2022/04/28 05:37:34;;;;;;;9.82;3.60;;;8.30;85.50;;;;;;5012481;28;20033;-47
2022/04/28 05:40:05;;;;;;;14.00;3.00;;;8.30;85.40;;;;;;5011656;28;20030;-45
2022/04/28 05:48:03;;;;;;;11.40;2.90;;;8.40;85.20;;;;;;5011886;28;20040;-46
2022/04/28 05:50:29;;;;;;;13.38;4.82;;;8.50;85.10;;;;;;4993207;28;20041;-43
2022/04/28 05:52:56;;;;;;;12.65;3.22;;;8.50;85.10;;;;;;4995312;28;20036;-45
2022/04/28 05:55:21;;;;;;;14.40;3.25;;;8.50;85.00;;;;;;4995300;28;20084;-47
2022/04/28 05:57:47;;;;;;;10.48;3.90;;;8.70;85.10;;;;;;5010719;28;20030;-46
2022/04/28 06:00:15;;;;;;;11.27;3.63;;;8.70;84.70;;;;;;5011443;28;20382;-45
2022/04/28 06:02:42;;;;;;;14.65;3.15;;;8.80;84.30;;;;;;5013302;28;20026;-45
2022/04/28 06:05:09;;;;;;;10.90;2.80;;;8.90;84.30;;;;;;5012266;28;20680;-44
2022/04/28 06:07:37;;;;;;;14.02;2.58;;;8.90;83.80;;;;;;5011403;28;20034;-46
2022/04/28 06:10:05;;;;;;;12.77;2.80;;;8.90;83.70;;;;;;5012449;28;20112;-44
2022/04/28 06:12:32;;;;;;;14.95;2.70;;;9.00;83.20;;;;;;5012494;28;20494;-46
2022/04/28 06:15:02;;;;;;;15.82;4.10;;;9.10;82.60;;;;;;5012612;28;20123;-48
2022/04/28 06:17:31;;;;;;;14.02;5.30;;;9.20;82.60;;;;;;5012644;28;20034;-45
2022/04/28 06:20:03;;;;;;;12.70;2.70;;;9.50;82.60;;;;;;5013203;28;20053;-45
2022/04/28 06:22:30;;;;;;;8.85;2.90;;;10.00;81.40;;;;;;5012908;28;20113;-44
2022/04/28 06:24:59;;;;;;;10.23;2.60;;;10.30;78.90;;;;;;5012919;28;20474;-44
2022/04/28 06:27:28;;;;;;;14.10;3.05;;;10.50;78.10;;;;;;5013065;28;20037;-45
2022/04/28 06:29:56;;;;;;;15.13;2.97;;;10.50;76.50;;;;;;5042203;28;20355;-48
2022/04/28 06:32:23;;;;;;;14.73;4.10;;;10.60;76.00;;;;;;5009311;28;20026;-44
2022/04/28 06:34:50;;;;;;;12.45;2.88;;;10.50;74.60;;;;;;5012568;28;20418;-44
2022/04/28 06:37:16;;;;;;;9.98;2.83;;;10.40;75.00;;;;;;4995247;28;20105;-46
2022/04/28 06:39:43;;;;;;;9.30;2.85;;;10.30;74.80;;;;;;5010728;28;20026;-44
2022/04/28 06:42:10;;;;;;;11.18;2.42;;;10.20;75.20;;;;;;5012434;28;20030;-45
2022/04/28 06:44:37;;;;;;;14.00;2.97;;;10.30;75.80;;;;;;5011508;28;20356;-51
2022/04/28 06:47:06;;;;;;;13.63;2.53;;;10.40;75.90;;;;;;5045062;28;20022;-48
2022/04/28 06:49:33;;;;;;;14.80;2.75;;;10.50;74.20;;;;;;5012614;28;20030;-46
2022/04/28 06:52:03;;;;;;;12.02;3.33;;;10.50;74.70;;;;;;5033220;28;20049;-47
2022/04/28 06:54:32;;;;;;;;;;;10.50;74.40;;;;;;5005594;28;20036;-44
2022/04/28 06:56:59;;;;;;;9.07;2.83;;;10.60;75.20;;;;;;5002494;28;19925;-48
2022/04/28 06:59:26;;;;;;;11.90;2.85;;;10.60;73.50;;;;;;5006119;28;20117;-45
2022/04/28 07:01:56;;;;;;;10.68;3.35;;;10.50;73.00;;;;;;5008816;28;20034;-45
2022/04/28 07:04:22;;;;;;;17.90;4.10;;;10.60;73.30;;;;;;4993250;28;20029;-46
2022/04/28 07:06:48;;;;;;;13.70;2.95;;;10.70;73.00;;;;;;4996548;28;20032;-50
2022/04/28 07:09:15;;;;;;;9.50;2.83;;;10.90;73.10;;;;;;5013013;28;20454;-46
2022/04/28 07:11:42;;;;;;;20.48;3.38;;;11.00;72.90;;;;;;5012328;28;20033;-44
2022/04/28 07:14:08;;;;;;;12.50;3.17;;;11.40;71.70;;;;;;5011880;28;20076;-48
2022/04/28 07:16:37;;;;;;;15.90;3.00;;;11.30;71.00;;;;;;5002962;28;20037;-45
2022/04/28 07:19:06;;;;;;;13.43;2.83;;;11.30;69.40;;;;;;5011680;28;20049;-45
2022/04/28 07:21:35;;;;;;;9.73;2.47;;;11.20;70.10;;;;;;5010809;28;20070;-49
2022/04/28 07:24:05;;;;;;;12.32;3.47;;;11.10;70.80;;;;;;5012612;28;20037;-45
2022/04/28 07:26:31;;;;;;;16.73;3.92;;;10.80;71.70;;;;;;5011857;28;20466;-46
2022/04/28 07:28:57;;;;;;;13.50;3.30;;;10.70;72.40;;;;;;5011633;28;20042;-45
2022/04/28 07:31:26;;;;;;;10.48;2.83;;;10.60;72.90;;;;;;5012079;28;20025;-47
2022/04/28 07:33:53;;;;;;;12.02;3.42;;;10.50;72.20;;;;;;5014735;28;20029;-45
2022/04/28 07:36:21;;;;;;;10.90;2.60;;;10.60;73.20;;;;;;5012033;28;20037;-45
2022/04/28 07:38:48;;;;;;;13.80;2.67;;;10.70;72.70;;;;;;5011431;28;20038;-44
2022/04/28 07:41:15;;;;;;;14.55;3.33;;;10.80;72.00;;;;;;5011680;28;20072;-49
2022/04/28 07:43:42;;;;;;;13.75;3.95;;;10.80;71.80;;;;;;5010491;28;20044;-47
2022/04/28 07:46:09;;;;;;;16.98;5.32;;;10.80;73.10;;;;;;5008345;28;20033;-44
2022/04/28 07:48:40;;;;;;;15.25;3.10;;;10.90;71.50;;;;;;5010560;28;20048;-47
2022/04/28 07:51:05;;;;;;;14.02;3.47;;;10.80;72.00;;;;;;5020945;28;20730;-45
2022/04/28 07:53:32;;;;;;;12.57;3.70;;;10.70;72.70;;;;;;5014654;28;20026;-44
2022/04/28 07:56:17;;;;;;;11.25;3.28;;;10.70;73.00;;;;;;5029876;28;20029;-47
2022/04/28 07:58:44;;;;;;;9.73;3.45;;;10.60;73.20;;;;;;5031658;28;20026;-48
2022/04/28 08:01:12;;;;;;;11.00;3.75;;;10.60;73.50;;;;;;5016113;28;20053;-45
2022/04/28 08:03:41;;;;;;;16.70;3.38;;;11.20;72.70;;;;;;5030629;28;20033;-46
2022/04/28 08:06:11;;;;;;;13.90;3.22;;;11.80;68.80;;;;;;5032338;28;20458;-45
2022/04/28 08:08:39;;;;;;;12.13;3.63;;;11.90;69.20;;;;;;5030684;28;20354;-50
2022/04/28 08:11:08;;;;;;;17.30;3.38;;;11.70;68.90;;;;;;5030297;28;20036;-45
2022/04/28 08:13:35;;;;;;;12.27;3.03;;;11.40;71.10;;;;;;5031360;28;20033;-44
2022/04/28 08:16:03;;;;;;;9.52;2.97;;;11.20;70.70;;;;;;5032471;28;20513;-45
2022/04/28 08:18:31;;;;;;;11.23;3.08;;;11.30;70.50;;;;;;5030632;28;20041;-47
2022/04/28 08:21:00;;;;;;;15.43;3.10;;;11.90;69.50;;;;;;5027703;28;20029;-45
2022/04/28 08:23:27;;;;;;;14.57;2.80;;;12.20;68.60;;;;;;5028703;28;20033;-45
2022/04/28 08:25:54;;;;;;;16.17;3.63;;;12.30;67.20;;;;;;5033736;28;20068;-45
2022/04/28 08:28:24;;;;;;;10.50;2.92;;;12.80;66.30;;;;;;5028088;28;20044;-47
2022/04/28 08:30:51;;;;;;;16.67;3.28;;;13.00;64.90;;;;;;5025064;28;20029;-48
2022/04/28 08:33:21;;;;;;;12.93;3.25;;;12.30;65.30;;;;;;5031055;28;20030;-46
2022/04/28 08:35:47;;;;;;;11.27;2.85;;;11.90;68.10;;;;;;5030323;28;20025;-45
2022/04/28 08:38:14;;;;;;;14.35;2.88;;;11.60;68.90;;;;;;5029745;28;21505;-45
2022/04/28 08:40:43;;;;;;;16.83;3.55;;;11.40;69.70;;;;;;5029434;28;20041;-47
2022/04/28 08:43:11;;;;;;;7.80;2.80;;;11.40;70.00;;;;;;5031925;28;20882;-45
2022/04/28 08:48:31;;;;;;;17.73;4.03;;;11.40;71.40;;;;;;5029788;28;20051;-44
2022/04/28 08:51:01;;;;;;;14.63;4.00;;;11.50;69.30;;;;;;5034036;28;20041;-45
2022/04/28 08:53:30;;;;;;;11.18;2.75;;;11.60;69.40;;;;;;5030898;28;20036;-45
2022/04/28 08:55:59;;;;;;;11.23;2.80;;;11.80;69.50;;;;;;5012332;28;20047;-46
2022/04/28 08:58:26;;;;;;;10.50;2.72;;;11.90;68.80;;;;;;5030201;28;20413;-45
2022/04/28 09:00:53;;;;;;;13.40;3.05;;;12.00;67.50;;;;;;5033048;28;20099;-47
2022/04/28 09:03:20;;;;;;;10.68;3.05;;;12.40;67.20;;;;;;5031032;28;20029;-47
2022/04/28 09:05:51;;;;;;;12.13;4.03;;;12.60;65.90;;;;;;5031260;28;20041;-46
2022/04/28 09:08:18;;;;;;;12.57;4.35;;;12.50;66.60;;;;;;5012898;28;20025;-45
2022/04/28 09:10:45;;;;;;;11.27;2.55;;;12.40;66.40;;;;;;5030717;28;20048;-47
2022/04/28 09:15:58;;;;;;;16.35;2.95;;;13.00;65.40;;;;;;5035104;28;20044;-44
2022/04/28 09:18:25;;;;;;;13.23;2.20;;;12.90;64.40;;;;;;5030238;28;20432;-46
2022/04/28 09:20:51;;;;;;;12.65;3.42;;;12.70;64.40;;;;;;5014150;28;20021;-44
2022/04/28 09:23:18;;;;;;;12.98;2.95;;;12.60;65.40;;;;;;5031423;28;20040;-44
2022/04/28 09:25:46;;;;;;;12.63;2.33;;;12.40;66.10;;;;;;5032885;28;20072;-47
2022/04/28 09:28:15;;;;;;;8.63;3.33;;;12.30;66.60;;;;;;5029451;28;20041;-46
2022/04/28 09:30:50;;;;;;;11.73;2.75;;;13.10;65.30;;;;;;5029667;28;20417;-45
2022/04/28 09:33:22;;;;;;;9.57;2.65;;;13.40;63.50;;;;;;5030356;28;20413;-47
2022/04/28 09:35:54;;;;;;;15.50;2.70;;;13.90;62.50;;;;;;5012531;28;20041;-45
2022/04/28 09:38:20;;;;;;;8.02;2.40;;;13.80;61.10;;;;;;5031046;28;20029;-47
2022/04/28 09:43:35;;;;;;;10.65;2.00;;;13.30;62.30;;;;;;5029868;28;20469;-48
2022/04/28 09:46:04;;;;;;;14.93;2.88;;;13.70;60.80;;;;;;5027531;28;20065;-45
2022/04/28 09:48:31;;;;;;;12.27;2.40;;;13.70;61.30;;;;;;5027361;28;20017;-45
2022/04/28 09:51:07;;;;;;;17.05;3.47;;;14.20;62.50;;;;;;5021377;28;20078;-45
2022/04/28 09:53:36;;;;;;;9.10;3.08;;;14.60;60.80;;;;;;5009699;28;20014;-45
2022/04/28 09:56:05;;;;;;;10.68;2.55;;;14.60;58.50;;;;;;5009381;28;20040;-46
2022/04/28 09:58:33;;;;;;;8.63;2.53;;;13.80;58.70;;;;;;5008358;28;20053;-45
2022/04/28 10:01:02;;;;;;;14.68;2.85;;;13.60;60.20;;;;;;5010805;28;20362;-45
2022/04/28 10:03:33;;;;;;;14.07;3.42;;;13.90;60.80;;;;;;4994190;28;20045;-46
2022/04/28 10:06:05;;;;;;;8.80;2.17;;;13.90;61.50;;;;;;5009121;28;20065;-45
2022/04/28 10:08:34;;;;;;;13.90;2.35;;;13.40;61.50;;;;;;4993769;28;20075;-46
2022/04/28 10:11:05;;;;;;;13.02;3.88;;;13.40;60.70;;;;;;5009617;28;20435;-45
2022/04/28 10:13:35;;;;;;;9.20;2.78;;;13.90;59.90;;;;;;5007854;28;20084;-45
2022/04/28 10:16:12;;;;;;;6.90;2.45;;;13.40;61.80;;;;;;5007960;28;20045;-45
2022/04/28 10:18:45;;;;;;;12.73;2.95;;;13.90;62.90;;;;;;5008816;28;20041;-45
2022/04/28 10:21:16;;;;;;;13.13;3.60;;;14.10;59.60;;;;;;4994154;28;20042;-46
2022/04/28 10:32:33;;;;;;;11.25;2.63;;;14.30;60.90;;;;;;5008759;28;20037;-47
2022/04/28 10:35:08;;;;;;;11.18;3.45;;;14.50;58.30;;;;;;5008689;28;20034;-45
2022/04/28 10:37:52;;;;;;;13.98;3.05;;;14.90;60.30;;;;;;5007853;28;20026;-45
2022/04/28 10:40:22;;;;;;;8.02;2.55;;;14.70;57.30;;;;;;5011081;28;20084;-45
2022/04/28 10:42:50;;;;;;;9.50;2.22;;;14.60;58.80;;;;;;4994101;28;20459;-47
2022/04/28 10:45:23;;;;;;;9.60;1.98;;;14.60;56.90;;;;;;5012141;28;20038;-46
2022/04/28 10:47:48;;;;;;;10.88;3.45;;;14.40;58.50;;;;;;5012945;28;20038;-46
2022/04/28 10:50:23;;;;;;;14.10;2.97;;;14.40;59.00;;;;;;5015384;28;20041;-48
2022/04/28 10:53:02;;;;;;;16.98;3.22;;;14.70;58.30;;;;;;5030477;28;20021;-46
2022/04/28 10:55:55;;;;;;;8.13;3.42;;;14.90;56.70;;;;;;5009995;28;20038;-50
2022/04/28 10:58:24;;;;;;;12.02;2.83;;;14.60;57.70;;;;;;5008174;28;20100;-46
2022/04/28 11:01:23;;;;;;;12.02;3.13;;;14.60;57.30;;;;;;5018592;28;20096;-49
2022/04/28 11:03:55;;;;;;;9.07;2.57;;;14.20;58.80;;;;;;4996793;28;20474;-45
2022/04/28 11:06:24;;;;;;;11.63;2.53;;;14.20;60.20;;;;;;5014668;28;20030;-45
2022/04/28 11:08:55;;;;;;;10.02;2.53;;;14.40;60.80;;;;;;5022764;28;20533;-48
2022/04/28 11:11:25;;;;;;;11.60;3.20;;;14.40;59.00;;;;;;5008991;28;20045;-46
2022/04/28 11:13:59;;;;;;;15.77;2.65;;;13.90;60.50;;;;;;5012833;28;20363;-46
2022/04/28 11:16:29;;;;;;;9.32;2.78;;;14.60;63.20;;;;;;5008908;28;20041;-49
2022/04/28 11:18:55;;;;;;;8.27;2.50;;;14.80;58.60;;;;;;5012771;28;20049;-45
2022/04/28 11:21:23;;;;;;;17.33;3.15;;;15.00;58.10;;;;;;4998143;28;20041;-47
2022/04/28 11:23:53;;;;;;;11.50;3.58;;;14.80;59.10;;;;;;5015795;28;20062;-46
2022/04/28 11:26:23;;;;;;;14.00;2.63;;;14.60;58.00;;;;;;5012315;28;20065;-46
2022/04/28 11:28:51;;;;;;;12.18;2.55;;;14.50;58.80;;;;;;5008843;28;20017;-45
2022/04/28 11:31:19;;;;;;;12.85;3.45;;;14.50;59.60;;;;;;5012847;28;20324;-45
2022/04/28 11:33:48;;;;;;;11.23;2.63;;;13.90;59.80;;;;;;5011631;28;20083;-45
2022/04/28 11:36:26;;;;;;;9.90;2.83;;;13.80;59.80;;;;;;5014728;28;20149;-46
2022/04/28 11:38:54;;;;;;;9.65;2.95;;;14.10;60.10;;;;;;5011455;28;20037;-46
2022/04/28 11:41:32;;;;;;;10.68;3.20;;;14.30;58.90;;;;;;5021226;28;20030;-46
2022/04/28 11:44:26;;;;;;;11.75;3.30;;;13.80;58.60;;;;;;5009933;28;20033;-44
2022/04/28 11:46:53;;;;;;;8.52;2.60;;;13.60;61.20;;;;;;4993338;28;20442;-46
2022/04/28 11:49:20;;;;;;;13.27;2.47;;;13.90;60.60;;;;;;5007845;28;20347;-45
2022/04/28 11:51:48;;;;;;;8.13;2.45;;;13.80;60.60;;;;;;5027204;28;20050;-45
2022/04/28 11:54:23;;;;;;;12.05;2.85;;;13.70;62.40;;;;;;5030946;28;20272;-46
2022/04/28 11:56:50;;;;;;;9.90;3.40;;;13.90;61.00;;;;;;5011384;28;20503;-46
2022/04/28 11:59:20;;;;;;;13.77;2.53;;;13.90;58.80;;;;;;5029530;28;20030;-44
2022/04/28 12:01:47;;;;;;;;;;;14.10;60.30;;;;;;5034815;28;20026;-46
2022/04/28 12:04:16;;;;;;;22.60;2.72;;;13.70;58.30;;;;;;5031571;28;19919;-46
2022/04/28 12:06:46;;;;;;;6.88;1.70;;;13.70;59.50;;;;;;5035267;28;20115;-46
2022/04/28 12:14:48;;;;;;;8.68;2.35;;;13.30;62.80;;;;;;5031587;28;20056;-47
2022/04/28 12:20:09;;;;;;;9.63;1.83;;;13.50;62.20;;;;;;5029438;28;20060;-47
2022/04/28 12:22:41;;;;;;;12.07;2.55;;;13.50;60.30;;;;;;5029646;28;20017;-44
2022/04/28 12:25:25;;;;;;;12.68;2.70;;;13.50;61.90;;;;;;5030349;28;20474;-45
2022/04/28 12:27:58;;;;;;;13.35;2.80;;;13.50;61.20;;;;;;5043543;28;20422;-47
2022/04/28 12:30:24;;;;;;;8.35;2.13;;;13.30;62.00;;;;;;5012225;28;20025;-45
2022/04/28 12:32:54;;;;;;;7.32;2.33;;;13.20;62.30;;;;;;5028280;28;20040;-47
2022/04/28 12:35:35;;;;;;;11.07;2.10;;;13.10;62.90;;;;;;5030844;28;20101;-45
2022/04/28 12:38:07;;;;;;;13.25;2.78;;;13.10;63.50;;;;;;5012663;28;20029;-46
2022/04/28 12:40:43;;;;;;;8.43;2.08;;;13.10;63.10;;;;;;5028777;28;20040;-45
2022/04/28 12:43:09;;;;;;;10.05;2.35;;;13.20;62.40;;;;;;5026424;28;20755;-46
2022/04/28 12:45:54;;;;;;;9.63;2.90;;;13.10;63.20;;;;;;5029802;28;20107;-45
2022/04/28 12:48:27;;;;;;;7.80;2.15;;;13.30;62.00;;;;;;5028325;28;20025;-47
2022/04/28 12:51:18;;;;;;;10.38;2.10;;;13.20;62.00;;;;;;5019858;28;20057;-46
2022/04/28 12:53:50;;;;;;;10.23;2.28;;;13.00;59.90;;;;;;5011406;28;20141;-47
2022/04/28 12:56:29;;;;;;;13.98;3.78;;;13.20;63.10;;;;;;5011278;28;20091;-49
2022/04/28 12:58:59;;;;;;;9.27;2.60;;;13.10;61.90;;;;;;5012124;28;20045;-44
2022/04/28 13:01:29;;;;;;;10.70;2.57;;;13.00;62.70;;;;;;5010921;28;20148;-46
2022/04/28 13:04:04;;;;;;;13.00;3.38;;;13.00;62.00;;;;;;5014331;28;20120;-46
2022/04/28 13:06:35;;;;;;;14.70;2.60;;;13.00;64.20;;;;;;5010916;28;20327;-47
2022/04/28 13:09:03;;;;;;;12.75;2.95;;;12.80;62.40;;;;;;5010360;28;20030;-48
2022/04/28 13:11:38;;;;;;;11.50;2.83;;;12.50;63.90;;;;;;5010336;28;20493;-48
2022/04/28 13:14:06;;;;;;;8.88;2.38;;;12.60;63.70;;;;;;5012768;28;20026;-44
2022/04/28 13:16:33;;;;;;;11.30;2.47;;;12.50;63.50;;;;;;5002381;28;20609;-47
2022/04/28 13:19:01;;;;;;;7.68;2.75;;;12.50;64.20;;;;;;4993163;28;20023;-47
2022/04/28 13:21:28;;;;;;;10.80;2.78;;;12.40;63.20;;;;;;5009004;28;20040;-46
2022/04/28 13:23:55;;;;;;;9.10;2.75;;;12.40;64.60;;;;;;5029043;28;20026;-47
2022/04/28 13:26:23;;;;;;;12.23;3.65;;;12.40;65.00;;;;;;5015209;28;20470;-49
2022/04/28 13:28:52;;;;;;;10.35;2.80;;;12.50;65.80;;;;;;5011714;28;20030;-44
2022/04/28 13:31:21;;;;;;;10.63;2.15;;;12.40;64.50;;;;;;5013358;28;20032;-46
2022/04/28 13:33:50;;;;;;;14.35;2.88;;;12.50;64.60;;;;;;5007956;28;20034;-45
2022/04/28 13:36:24;;;;;;;10.32;2.13;;;12.50;65.10;;;;;;5002324;28;20116;-49